UKLR/RWN METAR and TAF weather

Enter ICAO airport designator
Station Type Date Time Source
UKLR METAR 2020/09/26 15:00 UTC NOAA

UKLR 261500Z 12008MPS 080V150 CAVOK 24/12 Q1000 NOSIG


Station Type Date Time Source
UKLR Decoded METAR 2020/09/26 15:00 UTC NOAA

Rivne, Ukraine (UKLR) 50-35N 026-08E
Sep 26, 2020 - 11:00 AM EDT / 2020.09.26 1500 UTC
Wind: from the ESE (120 degrees) at 18 MPH (16 KT) (direction variable):0
Visibility: greater than 7 mile(s):0
Temperature: 75 F (24 C)
Dew Point: 53 F (12 C)
Relative Humidity: 46%
Pressure (altimeter): 29.53 in. Hg (1000 hPa)
ob: UKLR 261500Z 12008MPS 080V150 CAVOK 24/12 Q1000 NOSIG
cycle: 15

Station Type Date Time Source
UKLR TAF 2019/08/16 12:15 UTC NOAA

TAF TAF UKLR 161105Z 1612/1821 35003MPS 9999 BKN020 SCT023CB

Example: see airport list